Time;durP1;ratioP1;P1;durP2;ratioP2;P2;SDS_P1;SDS_P2;PMS_P1;PMS_P2;Temp;Humidity;BMP_temperature;BMP_pressure;BME280_temperature;BME280_humidity;BME280_pressure;Samples;Min_cycle;Max_cycle;Signal;HPM_P1;HPM_P2
2021/12/14 00:02:24;;;;;;;58.83;28.60;;;;;;;7.25;100.00;102000.19;5112386;28;20447;-79
2021/12/14 00:04:50;;;;;;;62.10;29.88;;;;;;;7.23;100.00;102008.25;5129608;27;20039;-80
2021/12/14 00:07:17;;;;;;;57.20;29.70;;;;;;;7.26;100.00;102009.84;5112367;27;20084;-80
2021/12/14 00:09:44;;;;;;;62.35;29.17;;;;;;;7.26;100.00;102004.53;5115717;27;20031;-79
2021/12/14 00:17:28;;;;;;;65.15;30.17;;;;;;;7.19;100.00;101991.72;5134068;27;20062;-79
2021/12/14 00:19:57;;;;;;;69.20;34.45;;;;;;;7.17;100.00;102004.25;5134042;27;20043;-79
2021/12/14 00:24:06;;;;;;;61.03;31.02;;;;;;;7.24;100.00;102014.44;5115833;27;20042;-79
2021/12/14 00:25:22;;;;;;;64.25;32.83;;;;;;;7.23;100.00;102004.75;5133303;27;20202;-79
2021/12/14 00:27:48;;;;;;;71.15;35.97;;;;;;;7.16;100.00;101997.25;5115969;27;20084;-79
2021/12/14 00:30:15;;;;;;;72.70;33.85;;;;;;;7.12;100.00;101997.56;5098819;27;20220;-79
2021/12/14 00:32:41;;;;;;;66.03;33.28;;;;;;;7.21;100.00;101996.03;5098720;27;20031;-78
2021/12/14 00:35:13;;;;;;;67.28;33.70;;;;;;;7.16;100.00;101989.28;5098378;27;20042;-78
2021/12/14 00:37:42;;;;;;;71.18;33.03;;;;;;;7.17;100.00;101990.97;5115841;27;20273;-79
2021/12/14 00:40:14;;;;;;;68.28;33.97;;;;;;;7.19;100.00;101989.06;5115365;27;20492;-79
2021/12/14 00:42:39;;;;;;;68.75;33.80;;;;;;;7.18;100.00;101982.03;5098552;27;20027;-79
2021/12/14 00:45:05;;;;;;;74.47;33.73;;;;;;;7.12;100.00;101976.31;5115357;27;20455;-78
2021/12/14 00:47:31;;;;;;;69.57;35.30;;;;;;;7.21;100.00;101982.75;5133641;27;20031;-79
2021/12/14 00:49:56;;;;;;;68.37;34.40;;;;;;;7.15;100.00;101974.28;5115280;27;20084;-78
2021/12/14 00:52:22;;;;;;;71.40;32.67;;;;;;;7.22;100.00;101971.19;5098407;27;20062;-79
2021/12/14 00:54:49;;;;;;;64.00;33.03;;;;;;;7.13;100.00;101962.91;5114957;27;20150;-80
2021/12/14 00:57:14;;;;;;;;;;;;;;;7.22;100.00;101974.69;5098957;27;20110;-78
2021/12/14 00:59:40;;;;;;;;;;;;;;;7.14;100.00;101967.28;5133732;27;20391;-79
2021/12/14 01:02:24;;;;;;;64.53;32.35;;;;;;;7.13;100.00;101968.22;5114971;27;20006;-79
2021/12/14 01:05:00;;;;;;;61.33;33.08;;;;;;;7.15;100.00;101966.31;5114871;27;20035;-79
2021/12/14 01:07:29;;;;;;;66.78;33.83;;;;;;;7.15;100.00;101963.66;5115209;27;20053;-78
2021/12/14 01:09:59;;;;;;;61.25;30.42;;;;;;;7.12;100.00;101953.28;5115076;27;20046;-79
2021/12/14 01:12:38;;;;;;;61.50;31.08;;;;;;;7.08;100.00;101945.63;5114895;27;20011;-79
2021/12/14 01:15:28;;;;;;;65.40;32.38;;;;;;;7.05;100.00;101948.53;5114279;27;20057;-78
2021/12/14 01:23:59;;;;;;;56.78;31.13;;;;;;;7.01;100.00;101955.84;5132519;27;20909;-79
2021/12/14 01:26:25;;;;;;;62.15;32.35;;;;;;;7.06;100.00;101961.66;5114542;27;20074;-78
2021/12/14 01:28:51;;;;;;;60.95;32.38;;;;;;;7.05;100.00;101959.13;5114572;27;20055;-79
2021/12/14 01:31:28;;;;;;;59.67;30.48;;;;;;;6.97;100.00;101949.88;5114346;27;20785;-78
2021/12/14 01:34:00;;;;;;;57.83;31.17;;;;;;;7.06;100.00;101950.19;5114121;27;20061;-78
2021/12/14 01:36:43;;;;;;;65.05;31.42;;;;;;;6.96;100.00;101934.09;5114442;27;20172;-79
2021/12/14 01:42:03;;;;;;;53.03;28.10;;;;;;;6.98;100.00;101926.88;5114017;27;20394;-79
2021/12/14 01:44:35;;;;;;;56.30;28.48;;;;;;;6.92;100.00;101916.66;5113840;27;20083;-78
2021/12/14 01:47:09;;;;;;;60.03;31.40;;;;;;;6.92;100.00;101908.72;5097568;27;20035;-79
2021/12/14 01:49:51;;;;;;;60.50;31.15;;;;;;;6.82;100.00;101913.84;5116637;27;20039;-78
2021/12/14 01:52:32;;;;;;;56.30;30.17;;;;;;;6.90;100.00;101913.28;5114072;27;20122;-79
2021/12/14 01:55:05;;;;;;;54.58;30.67;;;;;;;6.89;100.00;101906.28;5096829;27;20039;-78
2021/12/14 01:57:32;;;;;;;51.63;29.85;;;;;;;6.95;100.00;101919.09;5131912;27;20115;-79
2021/12/14 01:59:58;;;;;;;52.38;26.90;;;;;;;6.98;100.00;101906.47;5113673;27;20042;-78
2021/12/14 02:02:44;;;;;;;49.55;26.65;;;;;;;6.98;100.00;101908.28;5113686;27;20055;-78
2021/12/14 02:05:19;;;;;;;50.97;27.75;;;;;;;6.96;100.00;101892.44;5096800;27;20547;-78
2021/12/14 02:07:44;;;;;;;47.40;26.90;;;;;;;6.92;100.00;101874.19;5096703;27;20137;-78
2021/12/14 02:10:22;;;;;;;51.70;26.40;;;;;;;6.97;100.00;101864.91;5113647;27;20123;-78
2021/12/14 02:12:49;;;;;;;40.70;23.60;;;;;;;7.02;100.00;101863.75;5113613;27;20480;-78
2021/12/14 02:15:24;;;;;;;45.90;25.13;;;;;;;6.91;100.00;101853.94;5113578;27;20042;-78
2021/12/14 02:17:52;;;;;;;43.40;24.90;;;;;;;6.87;100.00;101836.53;5096620;27;20039;-78
2021/12/14 02:20:23;;;;;;;47.13;24.10;;;;;;;6.93;100.00;101844.88;5113501;27;20121;-78
2021/12/14 02:22:49;;;;;;;47.00;25.75;;;;;;;6.91;100.00;101841.50;5096415;27;20398;-79
2021/12/14 02:25:16;;;;;;;43.10;24.83;;;;;;;6.84;100.00;101826.13;5113160;27;20038;-79
2021/12/14 02:27:45;;;;;;;46.97;25.17;;;;;;;6.90;100.00;101825.66;5112547;27;20091;-78
2021/12/14 02:30:16;;;;;;;40.38;23.30;;;;;;;6.88;100.00;101828.44;5095474;27;20029;-78
2021/12/14 02:32:43;;;;;;;39.25;23.48;;;;;;;6.91;100.00;101824.72;5112770;27;20027;-78
2021/12/14 02:35:12;;;;;;;42.72;22.08;;;;;;;6.86;100.00;101829.50;5112949;27;20109;-78
2021/12/14 02:37:52;;;;;;;39.90;24.13;;;;;;;6.90;100.00;101828.31;5112884;27;20536;-79
2021/12/14 02:40:31;;;;;;;40.25;24.15;;;;;;;6.85;100.00;101819.84;5095659;27;20043;-79
2021/12/14 02:43:00;;;;;;;40.53;23.52;;;;;;;6.89;100.00;101822.16;5112911;27;20316;-79
2021/12/14 02:45:26;;;;;;;43.70;24.30;;;;;;;6.89;100.00;101818.69;5130923;27;20488;-79
2021/12/14 02:47:52;;;;;;;44.40;23.52;;;;;;;6.89;100.00;101818.69;5112975;27;20026;-79
2021/12/14 02:50:19;;;;;;;;;;;;;;;6.86;100.00;101817.09;5131455;27;20138;-79
2021/12/14 02:52:44;;;;;;;46.20;23.48;;;;;;;6.84;100.00;101799.59;5096065;27;19930;-79
2021/12/14 02:55:18;;;;;;;38.22;22.88;;;;;;;6.91;100.00;101819.41;5111352;27;20043;-79
2021/12/14 02:57:52;;;;;;;41.08;23.40;;;;;;;6.87;100.00;101816.13;5095915;27;20035;-78
2021/12/14 03:00:25;;;;;;;44.67;25.13;;;;;;;6.82;100.00;101810.31;5096023;27;20035;-79
2021/12/14 03:02:51;;;;;;;42.72;25.17;;;;;;;6.75;100.00;101799.28;5130891;27;20027;-79
2021/12/14 03:05:19;;;;;;;;;;;;;;;6.78;100.00;101808.00;5095878;28;20027;-78
2021/12/14 03:07:50;;;;;;;43.72;23.30;;;;;;;6.72;100.00;101798.69;5112656;27;20401;-78
2021/12/14 03:10:33;;;;;;;39.40;23.20;;;;;;;6.74;100.00;101796.72;5130563;27;20038;-79
2021/12/14 03:13:05;;;;;;;46.03;23.55;;;;;;;6.82;100.00;101812.13;5115595;28;20039;-78
2021/12/14 03:15:47;;;;;;;41.95;23.27;;;;;;;6.84;100.00;101807.56;5113752;27;20031;-79
2021/12/14 03:18:17;;;;;;;45.60;23.83;;;;;;;6.68;100.00;101787.44;5112777;28;20031;-78
2021/12/14 03:20:50;;;;;;;41.38;22.00;;;;;;;6.86;100.00;101811.78;5095481;28;20039;-78
2021/12/14 03:23:23;;;;;;;37.97;22.92;;;;;;;6.85;100.00;101798.63;5112315;27;20037;-79
2021/12/14 03:25:53;;;;;;;43.08;23.40;;;;;;;6.78;100.00;101790.25;5130336;28;20069;-78
2021/12/14 03:28:20;;;;;;;45.83;24.33;;;;;;;6.81;100.00;101802.44;5095415;28;20160;-79
2021/12/14 03:30:46;;;;;;;40.13;23.65;;;;;;;6.73;100.00;101795.88;5095538;28;20515;-78
2021/12/14 03:33:18;;;;;;;39.67;23.73;;;;;;;6.66;100.00;101788.50;5112340;28;20110;-79
2021/12/14 03:35:49;;;;;;;39.20;24.40;;;;;;;6.67;100.00;101798.13;5112061;28;20042;-78
2021/12/14 03:38:19;;;;;;;42.08;24.23;;;;;;;6.69;100.00;101797.06;5112510;28;20027;-78
2021/12/14 03:40:54;;;;;;;42.13;23.17;;;;;;;6.68;100.00;101802.50;5112372;28;20049;-79
2021/12/14 03:43:20;;;;;;;42.20;25.63;;;;;;;6.69;100.00;101799.72;5113730;27;20030;-79
2021/12/14 03:45:48;;;;;;;38.90;23.25;;;;;;;6.67;100.00;101796.34;5116235;27;20035;-79
2021/12/14 03:48:13;;;;;;;41.83;24.63;;;;;;;6.71;100.00;101795.16;5116349;27;20027;-79
2021/12/14 03:50:42;;;;;;;42.00;24.73;;;;;;;6.75;100.00;101804.59;5099418;27;20039;-79
2021/12/14 03:53:10;;;;;;;46.78;24.27;;;;;;;6.70;100.00;101788.16;5099395;27;20023;-79
2021/12/14 03:55:39;;;;;;;35.75;23.02;;;;;;;6.64;100.00;101777.16;5115865;27;20062;-79
2021/12/14 03:58:13;;;;;;;39.25;24.25;;;;;;;6.73;100.00;101795.06;5116074;27;20392;-78
2021/12/14 04:00:44;;;;;;;40.15;23.90;;;;;;;6.69;100.00;101783.78;5099133;27;20404;-79
2021/12/14 04:03:14;;;;;;;40.75;24.05;;;;;;;6.75;100.00;101778.06;5133436;27;20047;-78
2021/12/14 04:06:02;;;;;;;42.40;24.20;;;;;;;6.78;100.00;101786.75;5116007;27;20079;-78
2021/12/14 04:08:30;;;;;;;38.00;22.60;;;;;;;6.66;100.00;101762.81;5099226;27;20179;-79
2021/12/14 04:10:59;;;;;;;40.38;24.25;;;;;;;6.67;100.00;101763.63;5115841;27;20027;-79
2021/12/14 04:13:38;;;;;;;46.22;24.10;;;;;;;6.72;100.00;101764.19;5115787;27;20034;-78
2021/12/14 04:16:08;;;;;;;45.70;22.98;;;;;;;6.75;100.00;101762.13;5116238;27;20035;-79
2021/12/14 04:18:34;;;;;;;49.65;24.90;;;;;;;6.73;100.00;101756.06;5115942;27;20035;-77
2021/12/14 04:21:02;;;;;;;42.05;22.73;;;;;;;6.74;100.00;101767.53;5115630;27;20027;-79
2021/12/14 04:23:34;;;;;;;45.92;24.73;;;;;;;6.80;100.00;101755.63;5098837;27;20035;-79
2021/12/14 04:26:04;;;;;;;43.92;22.75;;;;;;;6.78;100.00;101745.13;5115693;27;20027;-80
2021/12/14 04:28:36;;;;;;;45.42;24.02;;;;;;;6.80;100.00;101753.00;5115649;27;20507;-78
2021/12/14 04:31:01;;;;;;;41.95;23.15;;;;;;;6.82;100.00;101751.91;5115638;27;20031;-79
2021/12/14 04:33:34;;;;;;;42.35;24.40;;;;;;;6.86;100.00;101756.03;5098337;27;20042;-78
2021/12/14 04:36:05;;;;;;;40.60;22.88;;;;;;;6.80;100.00;101766.25;5098550;27;20035;-79
2021/12/14 04:38:36;;;;;;;39.28;22.50;;;;;;;6.79;100.00;101764.53;5115568;27;20041;-78
2021/12/14 04:52:19;;;;;;;45.13;25.40;;;;;;;6.64;100.00;101759.41;5115191;27;20106;-79
2021/12/14 04:54:52;;;;;;;44.83;24.98;;;;;;;6.66;100.00;101769.91;5114154;27;20156;-78
2021/12/14 04:57:57;;;;;;;48.70;26.60;;;;;;;6.60;100.00;101767.69;5115102;27;20039;-79
2021/12/14 05:00:24;;;;;;;48.63;26.13;;;;;;;6.59;100.00;101769.50;5013258;28;20037;-79
2021/12/14 05:03:04;;;;;;;45.33;23.15;;;;;;;6.66;100.00;101784.03;5013496;28;20045;-78
2021/12/14 05:05:40;;;;;;;46.08;24.77;;;;;;;6.65;100.00;101782.34;5057649;27;20087;-78
2021/12/14 05:10:40;;;;;;;42.47;23.88;;;;;;;6.63;100.00;101778.13;5113510;27;20035;-78
2021/12/14 05:13:05;;;;;;;45.70;23.30;;;;;;;6.61;100.00;101772.91;5113788;27;20368;-79
2021/12/14 05:15:34;;;;;;;42.50;21.55;;;;;;;6.74;100.00;101779.03;5113167;27;20027;-78
2021/12/14 05:18:02;;;;;;;43.25;22.35;;;;;;;6.75;100.00;101772.75;5113483;27;20071;-79
2021/12/14 05:20:29;;;;;;;43.42;23.42;;;;;;;6.69;100.00;101762.56;5096706;27;20055;-78
2021/12/14 05:22:57;;;;;;;38.92;21.48;;;;;;;6.68;100.00;101766.19;5097072;27;20083;-79
2021/12/14 05:25:27;;;;;;;46.17;21.77;;;;;;;6.65;100.00;101750.50;5113206;27;20341;-79
2021/12/14 05:28:08;;;;;;;40.40;22.73;;;;;;;6.64;100.00;101743.47;5113397;27;20087;-79
2021/12/14 05:30:40;;;;;;;36.35;20.90;;;;;;;6.69;100.00;101761.72;5113191;27;20043;-79
2021/12/14 05:33:42;;;;;;;40.55;22.38;;;;;;;6.69;100.00;101751.94;5115675;27;20080;-79
2021/12/14 05:36:23;;;;;;;40.38;22.67;;;;;;;6.65;100.00;101770.88;5113474;27;20042;-79
2021/12/14 05:38:58;;;;;;;41.85;22.45;;;;;;;6.68;100.00;101766.19;5096272;27;20065;-80
2021/12/14 05:44:35;;;;;;;46.15;24.00;;;;;;;6.60;100.00;101768.53;5112855;27;20031;-81
2021/12/14 05:47:05;;;;;;;46.85;24.65;;;;;;;6.57;100.00;101776.75;5113151;27;20034;-83
2021/12/14 05:49:42;;;;;;;54.40;27.77;;;;;;;6.53;100.00;101772.59;5097506;27;20054;-84
2021/12/14 05:52:22;;;;;;;57.00;26.50;;;;;;;6.59;100.00;101788.09;5114084;27;20048;-85
2021/12/14 05:54:49;;;;;;;50.67;27.20;;;;;;;6.44;100.00;101773.25;5113502;27;20073;-85
2021/12/14 05:57:19;;;;;;;53.38;26.17;;;;;;;6.45;100.00;101780.28;5096754;27;20539;-84
2021/12/14 05:59:46;;;;;;;50.22;26.55;;;;;;;6.39;100.00;101778.06;5113757;27;20042;-83
2021/12/14 06:02:13;;;;;;;44.17;24.38;;;;;;;6.42;100.00;101801.72;5096644;27;20205;-85
2021/12/14 06:04:46;;;;;;;49.63;24.30;;;;;;;6.34;100.00;101792.53;5096788;27;20371;-85
2021/12/14 06:07:12;;;;;;;48.20;23.75;;;;;;;6.42;100.00;101813.19;5095832;27;20470;-84
2021/12/14 06:09:42;;;;;;;46.03;24.95;;;;;;;6.36;100.00;101813.63;5113366;27;20127;-85
2021/12/14 06:12:22;;;;;;;47.63;25.00;;;;;;;6.44;100.00;101835.16;5113521;27;20179;-84
2021/12/14 06:14:54;;;;;;;49.22;26.05;;;;;;;6.42;100.00;101838.88;5113105;27;20023;-84
2021/12/14 06:17:29;;;;;;;42.97;22.27;;;;;;;6.44;100.00;101828.97;5131151;27;20027;-84
2021/12/14 06:20:04;;;;;;;40.25;22.90;;;;;;;6.39;100.00;101824.03;5096096;27;20031;-83
2021/12/14 06:22:30;;;;;;;49.03;25.77;;;;;;;6.44;100.00;101831.63;5095783;27;20428;-84
2021/12/14 06:25:02;;;;;;;42.85;25.05;;;;;;;6.45;100.00;101826.22;5095714;27;20402;-83
2021/12/14 06:27:32;;;;;;;42.67;23.42;;;;;;;6.44;100.00;101827.19;5112323;27;20035;-82
2021/12/14 06:30:06;;;;;;;47.40;25.23;;;;;;;6.43;100.00;101819.34;5095239;27;20492;-82
2021/12/14 06:32:39;;;;;;;42.90;24.52;;;;;;;6.46;100.00;101824.41;5112576;27;20058;-82
2021/12/14 06:35:16;;;;;;;44.50;23.38;;;;;;;6.50;100.00;101831.19;5112050;27;20536;-81
2021/12/14 06:40:58;;;;;;;49.08;24.10;;;;;;;6.50;100.00;101825.91;5113473;27;20031;-81
2021/12/14 06:43:28;;;;;;;46.03;25.60;;;;;;;6.49;100.00;101824.22;5105343;27;20133;-79
2021/12/14 06:45:58;;;;;;;44.25;24.48;;;;;;;6.50;100.00;101831.19;5113211;27;20030;-81
2021/12/14 06:48:45;;;;;;;49.63;23.17;;;;;;;6.42;100.00;101823.78;5096478;27;20087;-80
2021/12/14 06:51:15;;;;;;;46.55;24.98;;;;;;;6.38;100.00;101821.47;5113854;27;20039;-80
2021/12/14 06:53:52;;;;;;;51.75;26.85;;;;;;;6.32;100.00;101826.25;5097312;27;20158;-79
2021/12/14 06:56:58;;;;;;;51.05;25.80;;;;;;;6.41;100.00;101843.31;5095209;27;20084;-79
2021/12/14 06:59:34;;;;;;;52.95;25.90;;;;;;;6.40;100.00;101854.03;5113236;27;20023;-79
2021/12/14 07:02:11;;;;;;;48.42;25.67;;;;;;;6.47;100.00;101863.25;5129882;27;20051;-81
2021/12/14 07:04:51;;;;;;;48.72;25.80;;;;;;;6.45;100.00;101865.19;5096812;27;20339;-80
2021/12/14 07:07:22;;;;;;;55.20;27.95;;;;;;;6.38;100.00;101861.25;5095097;27;20027;-79
2021/12/14 07:09:53;;;;;;;53.63;26.17;;;;;;;6.37;100.00;101862.19;5111786;27;20039;-78
2021/12/14 07:12:38;;;;;;;58.97;28.05;;;;;;;6.43;100.00;101869.72;5111134;28;20231;-81
2021/12/14 07:15:25;;;;;;;58.92;29.00;;;;;;;6.35;100.00;101878.25;5131219;27;20043;-81
2021/12/14 07:18:01;;;;;;;56.67;28.95;;;;;;;6.40;100.00;101884.06;5111786;28;20038;-81
2021/12/14 07:20:32;;;;;;;56.47;27.42;;;;;;;6.44;100.00;101893.50;5130188;27;20386;-82
2021/12/14 07:23:04;;;;;;;62.50;28.13;;;;;;;6.47;100.00;101900.41;5111547;28;20098;-82
2021/12/14 07:25:36;;;;;;;52.03;27.25;;;;;;;6.43;100.00;101888.31;5094435;28;20042;-82
2021/12/14 07:28:13;;;;;;;70.13;28.38;;;;;;;6.41;100.00;101890.22;5111852;28;20062;-80
2021/12/14 07:30:42;;;;;;;56.97;29.35;;;;;;;6.45;100.00;101911.13;5111978;28;20059;-82
2021/12/14 07:33:19;;;;;;;57.53;26.98;;;;;;;6.42;100.00;101908.69;5094647;27;20069;-82
2021/12/14 07:35:48;;;;;;;58.67;27.08;;;;;;;6.42;100.00;101929.06;5095011;28;20368;-85
2021/12/14 07:38:22;;;;;;;56.47;26.67;;;;;;;6.34;100.00;101917.19;5095879;28;20035;-86
2021/12/14 07:41:01;;;;;;;66.93;27.95;;;;;;;6.31;100.00;101927.16;5113910;28;20115;-83
2021/12/14 07:43:38;;;;;;;64.10;29.85;;;;;;;6.34;100.00;101934.88;5113863;28;20037;-80
2021/12/14 07:46:32;;;;;;;66.90;30.52;;;;;;;6.28;100.00;101941.47;5131750;27;20070;-80
2021/12/14 07:49:04;;;;;;;75.60;30.80;;;;;;;6.26;100.00;101946.03;5112772;28;20383;-78
2021/12/14 07:51:32;;;;;;;68.68;30.15;;;;;;;6.27;100.00;101954.81;5111920;28;20281;-79
2021/12/14 07:54:06;;;;;;;68.07;29.90;;;;;;;6.30;100.00;101968.75;5094676;28;20501;-77
2021/12/14 07:56:50;;;;;;;65.05;28.70;;;;;;;6.29;100.00;101966.19;5110031;28;20034;-78
2021/12/14 07:59:50;;;;;;;62.17;28.52;;;;;;;6.34;100.00;101970.25;5093777;28;20031;-78
2021/12/14 08:02:23;;;;;;;58.65;27.58;;;;;;;6.33;100.00;101979.13;5060082;27;20420;-77
2021/12/14 08:04:59;;;;;;;66.88;28.98;;;;;;;6.31;100.00;101977.53;5092689;28;20480;-78
2021/12/14 08:07:34;;;;;;;64.50;29.05;;;;;;;6.26;100.00;101972.53;5111094;28;20038;-78
2021/12/14 08:10:16;;;;;;;66.00;27.10;;;;;;;6.28;100.00;101975.09;5111014;28;20046;-78
2021/12/14 08:13:05;;;;;;;64.20;28.35;;;;;;;6.26;100.00;101983.16;5110495;28;20023;-78
2021/12/14 08:15:42;;;;;;;62.03;27.50;;;;;;;6.29;100.00;101990.06;5093862;28;20444;-77
2021/12/14 08:18:09;;;;;;;56.30;25.73;;;;;;;6.30;100.00;101995.25;5110943;28;20042;-78
2021/12/14 08:20:40;;;;;;;55.15;24.88;;;;;;;6.28;100.00;101994.50;5110974;28;20042;-78
2021/12/14 08:23:19;;;;;;;60.53;25.90;;;;;;;6.28;100.00;101999.81;5093833;28;20080;-77
2021/12/14 08:25:45;;;;;;;50.35;21.45;;;;;;;6.29;100.00;102014.75;5110575;27;20468;-77
2021/12/14 08:28:11;;;;;;;50.58;24.17;;;;;;;6.34;100.00;102015.31;5128750;27;20035;-77
2021/12/14 08:30:41;;;;;;;50.25;23.40;;;;;;;6.34;100.00;102014.44;5131986;27;20628;-78
2021/12/14 08:33:19;;;;;;;44.03;21.55;;;;;;;6.34;100.00;102017.97;5114542;27;20054;-77
2021/12/14 08:35:45;;;;;;;48.50;21.63;;;;;;;6.35;100.00;102024.13;5132207;27;20121;-78
2021/12/14 08:38:15;;;;;;;49.83;23.50;;;;;;;6.36;100.00;102027.63;5114348;27;20099;-78
2021/12/14 08:40:44;;;;;;;57.80;22.98;;;;;;;6.32;100.00;102030.50;5114264;27;20031;-78
2021/12/14 08:43:20;;;;;;;58.20;23.02;;;;;;;6.31;100.00;102028.78;5132246;27;20376;-78
2021/12/14 08:46:06;;;;;;;46.92;22.10;;;;;;;6.37;100.00;102045.22;5113987;27;20031;-78
2021/12/14 08:48:43;;;;;;;51.53;21.77;;;;;;;6.34;100.00;102038.31;5114239;27;20455;-78
2021/12/14 08:51:14;;;;;;;47.97;21.40;;;;;;;6.24;100.00;102043.41;5114208;27;20047;-78
2021/12/14 08:53:52;;;;;;;52.80;22.77;;;;;;;6.29;100.00;102053.72;5113785;27;20041;-78
2021/12/14 08:56:20;;;;;;;48.05;22.90;;;;;;;6.35;100.00;102061.25;5114186;27;20439;-78
2021/12/14 08:58:47;;;;;;;47.80;21.33;;;;;;;6.39;100.00;102067.19;5114016;27;20039;-78
2021/12/14 09:01:17;;;;;;;58.45;23.60;;;;;;;6.32;100.00;102045.53;5113815;27;20445;-79
2021/12/14 09:03:51;;;;;;;59.58;23.10;;;;;;;6.39;100.00;102059.25;5112961;27;20505;-79
2021/12/14 09:06:21;;;;;;;50.83;21.58;;;;;;;6.38;100.00;102057.56;5096959;27;20031;-79
2021/12/14 09:08:50;;;;;;;49.65;22.90;;;;;;;6.38;100.00;102060.22;5113868;27;20058;-79
2021/12/14 09:11:24;;;;;;;43.88;21.17;;;;;;;6.41;100.00;102071.44;5113585;27;20035;-80
2021/12/14 09:13:50;;;;;;;50.55;21.60;;;;;;;6.44;100.00;102071.25;5113561;27;20110;-79
2021/12/14 09:16:18;;;;;;;;;;;;;;;6.46;100.00;102081.75;5132192;27;20042;-80
2021/12/14 09:18:51;;;;;;;57.88;22.67;;;;;;;6.42;100.00;102075.81;5113700;27;19911;-80
2021/12/14 09:21:21;;;;;;;45.90;19.58;;;;;;;6.46;100.00;102097.66;5131425;27;20191;-79
2021/12/14 09:23:53;;;;;;;48.53;21.23;;;;;;;6.42;100.00;102099.69;5113342;27;20031;-79
2021/12/14 09:26:23;;;;;;;41.35;19.27;;;;;;;6.45;100.00;102103.94;5113532;27;20114;-79
2021/12/14 09:28:49;;;;;;;51.25;19.67;;;;;;;6.45;100.00;102101.28;5131498;27;20046;-79
2021/12/14 09:31:22;;;;;;;46.08;21.33;;;;;;;6.58;100.00;102130.50;5113362;27;20031;-79
2021/12/14 09:33:50;;;;;;;42.40;18.92;;;;;;;6.52;100.00;102123.81;5131435;27;20133;-80
2021/12/14 09:36:16;;;;;;;40.70;18.98;;;;;;;6.53;100.00;102134.31;5113300;27;20039;-79
2021/12/14 09:38:55;;;;;;;46.42;20.73;;;;;;;6.55;100.00;102143.03;5096275;27;20038;-80
2021/12/14 09:41:31;;;;;;;48.08;20.92;;;;;;;6.52;100.00;102131.75;5113190;27;20449;-79
2021/12/14 09:43:57;;;;;;;46.60;21.08;;;;;;;6.54;100.00;102138.66;5112819;27;20038;-79
2021/12/14 09:46:24;;;;;;;55.47;24.05;;;;;;;6.54;100.00;102145.78;5095995;27;20047;-79
2021/12/14 09:48:56;;;;;;;57.42;22.58;;;;;;;6.59;100.00;102156.94;5130961;27;20037;-79
2021/12/14 09:51:50;;;;;;;48.75;22.38;;;;;;;6.68;100.00;102164.28;5095960;27;20050;-80
2021/12/14 09:54:20;;;;;;;51.38;21.73;;;;;;;6.65;100.00;102151.22;5109257;27;20341;-79
2021/12/14 09:56:51;;;;;;;52.60;21.23;;;;;;;6.66;100.00;102152.91;5112853;27;20066;-79
2021/12/14 09:59:17;;;;;;;52.78;21.63;;;;;;;6.65;100.00;102148.56;5112896;27;20039;-79
2021/12/14 10:01:56;;;;;;;44.38;20.45;;;;;;;6.69;100.00;102155.34;5093713;27;20373;-79
2021/12/14 10:04:29;;;;;;;43.47;19.60;;;;;;;6.71;100.00;102169.38;5094715;27;20047;-79
2021/12/14 10:06:58;;;;;;;49.45;21.52;;;;;;;6.74;100.00;102174.50;5112589;27;20039;-79
2021/12/14 10:09:27;;;;;;;47.58;22.58;;;;;;;6.73;100.00;102159.50;5112524;27;20092;-79
2021/12/14 10:14:28;;;;;;;46.90;20.65;;;;;;;6.78;100.00;102148.59;5112343;27;20411;-79
2021/12/14 10:16:54;;;;;;;43.70;19.83;;;;;;;6.85;100.00;102155.19;5095401;27;20380;-79
2021/12/14 10:19:23;;;;;;;46.08;21.08;;;;;;;6.79;100.00;102138.81;5112483;27;20019;-78
2021/12/14 10:21:53;;;;;;;51.75;22.67;;;;;;;6.86;100.00;102138.31;5112260;27;20042;-79
2021/12/14 10:24:20;;;;;;;45.67;20.95;;;;;;;6.90;100.00;102137.13;5130190;27;20042;-79
2021/12/14 10:26:54;;;;;;;44.13;20.08;;;;;;;6.92;100.00;102134.38;5112290;27;20035;-79
2021/12/14 10:29:20;;;;;;;48.65;22.40;;;;;;;6.92;100.00;102123.75;5112211;27;20037;-79
2021/12/14 10:31:49;;;;;;;;;;;;;;;6.95;100.00;102145.66;5112596;27;20026;-78
2021/12/14 10:34:18;;;;;;;43.55;20.02;;;;;;;7.02;100.00;102151.38;5129821;27;19937;-79
2021/12/14 10:36:51;;;;;;;51.30;20.27;;;;;;;7.19;100.00;102164.34;5130468;27;20035;-79
2021/12/14 10:39:35;;;;;;;41.60;19.27;;;;;;;7.30;100.00;102173.38;5111973;27;20114;-79
2021/12/14 10:44:53;;;;;;;40.67;18.35;;;;;;;7.40;100.00;102150.53;5111862;27;20074;-80
2021/12/14 10:47:21;;;;;;;41.05;18.45;;;;;;;7.33;100.00;102138.66;5111929;27;20055;-79
2021/12/14 10:49:47;;;;;;;35.60;18.42;;;;;;;7.42;100.00;102137.97;5094942;27;20126;-78
2021/12/14 10:52:18;;;;;;;42.70;19.38;;;;;;;7.49;100.00;102120.66;5094503;28;20373;-79
2021/12/14 10:54:50;;;;;;;37.78;17.95;;;;;;;7.53;100.00;102111.50;5129512;27;20039;-80
2021/12/14 10:57:22;;;;;;;38.67;18.20;;;;;;;7.54;100.00;102104.41;5111969;27;20035;-79
2021/12/14 10:59:52;;;;;;;41.00;17.83;;;;;;;7.57;100.00;102097.03;5111984;27;20041;-79
2021/12/14 11:02:21;;;;;;;38.83;17.10;;;;;;;7.53;100.00;102073.44;5111852;27;20039;-79
2021/12/14 11:04:56;;;;;;;35.88;16.83;;;;;;;7.57;100.00;102072.28;5128834;27;20072;-79
2021/12/14 11:07:37;;;;;;;32.00;16.35;;;;;;;7.53;100.00;102063.66;5111644;27;20031;-79
2021/12/14 11:10:13;;;;;;;30.88;16.98;;;;;;;7.55;100.00;102044.97;5129633;27;20027;-79
2021/12/14 11:12:43;;;;;;;28.75;15.95;;;;;;;7.66;100.00;102050.34;5113289;27;20027;-79
2021/12/14 11:15:11;;;;;;;39.15;17.42;;;;;;;7.71;100.00;102047.34;5130893;27;20042;-80
2021/12/14 11:20:32;;;;;;;;;;;;;;;7.86;100.00;102051.53;5112276;28;20349;-80
2021/12/14 11:23:08;;;;;;;32.08;15.23;;;;;;;7.80;100.00;102036.06;5111039;28;19919;-80
2021/12/14 11:25:40;;;;;;;26.60;14.98;;;;;;;7.80;100.00;102030.72;5111383;28;20368;-79
2021/12/14 11:28:14;;;;;;;28.85;15.30;;;;;;;7.84;100.00;102024.19;5111728;28;20058;-80
2021/12/14 11:30:50;;;;;;;26.25;14.20;;;;;;;7.81;100.00;102017.31;5111740;27;20074;-82
2021/12/14 11:33:27;;;;;;;32.67;16.45;;;;;;;7.81;100.00;102021.78;5111810;28;20035;-83
2021/12/14 11:36:08;;;;;;;29.15;15.43;;;;;;;7.83;100.00;102018.03;5112183;28;20031;-83
2021/12/14 11:38:52;;;;;;;21.75;12.57;;;;;;;7.86;100.00;102018.78;5130056;27;20067;-83
2021/12/14 11:41:29;;;;;;;26.98;14.18;;;;;;;7.90;100.00;102023.75;5112390;28;20186;-84
2021/12/14 11:44:27;;;;;;;25.88;13.02;;;;;;;7.92;100.00;102016.53;5130021;28;20095;-84
2021/12/14 11:47:42;;;;;;;23.70;12.05;;;;;;;8.00;100.00;102006.16;5096369;28;20059;-86
2021/12/14 11:50:22;;;;;;;24.92;12.32;;;;;;;7.97;100.00;101981.59;5112835;28;20035;-86
2021/12/14 11:53:13;;;;;;;19.58;10.77;;;;;;;8.19;100.00;101988.81;5094584;28;20106;-87
2021/12/14 11:56:06;;;;;;;20.30;9.52;;;;;;;8.38;100.00;101988.25;5094891;28;20055;-89
2021/12/14 11:58:36;;;;;;;14.43;8.30;;;;;;;8.52;100.00;101982.75;5119635;28;20441;-89
2021/12/14 12:01:11;;;;;;;18.92;9.05;;;;;;;8.60;100.00;101976.84;5111922;28;20830;-87
2021/12/14 12:04:11;;;;;;;11.27;7.07;;;;;;;8.85;100.00;101965.94;5111703;27;20511;-85
2021/12/14 12:09:29;;;;;;;;;;;;;;;8.99;100.00;101958.66;5134277;27;20488;-84
2021/12/14 12:12:07;;;;;;;11.68;7.35;;;;;;;9.21;100.00;101952.47;5098743;27;20017;-85
2021/12/14 12:14:39;;;;;;;11.98;7.95;;;;;;;9.19;100.00;101946.41;5115044;27;20026;-83
2021/12/14 12:17:10;;;;;;;11.23;6.90;;;;;;;9.02;100.00;101934.47;5115197;27;20027;-84
2021/12/14 12:19:37;;;;;;;13.30;7.82;;;;;;;8.95;100.00;101922.59;5115417;27;20432;-84
2021/12/14 12:22:12;;;;;;;12.38;5.82;;;;;;;8.78;100.00;101915.94;5098187;27;20515;-83
2021/12/14 12:24:45;;;;;;;8.97;5.33;;;;;;;8.70;100.00;101911.22;5114823;27;20414;-83